sensor_id;sensor_type;location;lat;lon;timestamp;temperature;humidity
34989;DHT22;21192;40.182;44.516;2023-03-01T00:01:04;10.00;55.20
34989;DHT22;21192;40.182;44.516;2023-03-01T00:03:31;10.00;55.30
34989;DHT22;21192;40.182;44.516;2023-03-01T00:05:58;10.00;55.30
34989;DHT22;21192;40.182;44.516;2023-03-01T00:08:24;10.00;55.30
34989;DHT22;21192;40.182;44.516;2023-03-01T00:11:03;10.00;55.40
34989;DHT22;21192;40.182;44.516;2023-03-01T00:13:29;10.00;55.40
34989;DHT22;21192;40.182;44.516;2023-03-01T00:15:55;10.00;55.50
34989;DHT22;21192;40.182;44.516;2023-03-01T00:18:21;10.00;55.50
34989;DHT22;21192;40.182;44.516;2023-03-01T00:20:53;10.00;55.60
34989;DHT22;21192;40.182;44.516;2023-03-01T00:23:19;10.00;55.60
34989;DHT22;21192;40.182;44.516;2023-03-01T00:25:45;10.10;55.70
34989;DHT22;21192;40.182;44.516;2023-03-01T00:28:11;10.10;55.80
34989;DHT22;21192;40.182;44.516;2023-03-01T00:30:37;10.10;55.80
34989;DHT22;21192;40.182;44.516;2023-03-01T00:33:03;10.00;55.90
34989;DHT22;21192;40.182;44.516;2023-03-01T00:35:29;10.00;56.00
34989;DHT22;21192;40.182;44.516;2023-03-01T00:37:57;9.90;56.20
34989;DHT22;21192;40.182;44.516;2023-03-01T00:40:31;9.80;56.50
34989;DHT22;21192;40.182;44.516;2023-03-01T00:42:57;9.60;56.80
34989;DHT22;21192;40.182;44.516;2023-03-01T00:45:23;9.60;56.90
34989;DHT22;21192;40.182;44.516;2023-03-01T00:47:50;9.70;56.90
34989;DHT22;21192;40.182;44.516;2023-03-01T00:50:16;9.70;56.80
34989;DHT22;21192;40.182;44.516;2023-03-01T00:52:43;9.70;56.90
34989;DHT22;21192;40.182;44.516;2023-03-01T00:55:09;9.70;56.80
34989;DHT22;21192;40.182;44.516;2023-03-01T00:57:35;9.60;57.00
34989;DHT22;21192;40.182;44.516;2023-03-01T01:00:02;9.60;57.10
34989;DHT22;21192;40.182;44.516;2023-03-01T01:02:31;9.70;57.00
34989;DHT22;21192;40.182;44.516;2023-03-01T01:04:57;9.70;57.00
34989;DHT22;21192;40.182;44.516;2023-03-01T01:07:23;9.70;57.00
34989;DHT22;21192;40.182;44.516;2023-03-01T01:09:49;9.70;57.00
34989;DHT22;21192;40.182;44.516;2023-03-01T01:12:14;9.60;57.00
34989;DHT22;21192;40.182;44.516;2023-03-01T01:14:40;9.70;57.00
34989;DHT22;21192;40.182;44.516;2023-03-01T01:17:06;9.70;56.90
34989;DHT22;21192;40.182;44.516;2023-03-01T01:19:32;9.70;56.90
34989;DHT22;21192;40.182;44.516;2023-03-01T01:21:57;9.70;56.90
34989;DHT22;21192;40.182;44.516;2023-03-01T01:24:23;9.70;56.80
34989;DHT22;21192;40.182;44.516;2023-03-01T01:26:49;9.70;56.80
34989;DHT22;21192;40.182;44.516;2023-03-01T01:29:15;9.70;56.80
34989;DHT22;21192;40.182;44.516;2023-03-01T01:31:42;9.70;56.90
34989;DHT22;21192;40.182;44.516;2023-03-01T01:34:16;9.80;56.80
34989;DHT22;21192;40.182;44.516;2023-03-01T01:36:42;9.80;56.70
34989;DHT22;21192;40.182;44.516;2023-03-01T01:39:09;9.80;56.60
34989;DHT22;21192;40.182;44.516;2023-03-01T01:41:39;9.80;56.60
34989;DHT22;21192;40.182;44.516;2023-03-01T01:44:25;9.80;56.70
34989;DHT22;21192;40.182;44.516;2023-03-01T01:46:55;9.90;56.70
34989;DHT22;21192;40.182;44.516;2023-03-01T01:49:27;9.90;56.60
34989;DHT22;21192;40.182;44.516;2023-03-01T01:57:24;10.00;56.30
34989;DHT22;21192;40.182;44.516;2023-03-01T01:59:54;10.00;56.40
34989;DHT22;21192;40.182;44.516;2023-03-01T02:02:22;10.00;56.40
34989;DHT22;21192;40.182;44.516;2023-03-01T02:04:49;10.00;56.40
34989;DHT22;21192;40.182;44.516;2023-03-01T02:07:22;9.90;56.50
34989;DHT22;21192;40.182;44.516;2023-03-01T02:09:50;9.90;56.50
34989;DHT22;21192;40.182;44.516;2023-03-01T02:12:20;9.90;56.50
34989;DHT22;21192;40.182;44.516;2023-03-01T02:14:47;10.00;56.50
34989;DHT22;21192;40.182;44.516;2023-03-01T02:17:15;10.00;56.30
34989;DHT22;21192;40.182;44.516;2023-03-01T02:22:31;10.00;56.10
34989;DHT22;21192;40.182;44.516;2023-03-01T02:30:44;10.00;55.90
34989;DHT22;21192;40.182;44.516;2023-03-01T02:33:30;10.00;55.80
34989;DHT22;21192;40.182;44.516;2023-03-01T02:36:05;10.00;55.70
34989;DHT22;21192;40.182;44.516;2023-03-01T02:38:32;10.00;55.60
34989;DHT22;21192;40.182;44.516;2023-03-01T02:40:58;10.00;55.50
34989;DHT22;21192;40.182;44.516;2023-03-01T02:43:29;10.00;55.50
34989;DHT22;21192;40.182;44.516;2023-03-01T02:46:02;10.00;55.30
34989;DHT22;21192;40.182;44.516;2023-03-01T02:48:42;10.10;55.30
34989;DHT22;21192;40.182;44.516;2023-03-01T02:54:20;10.10;55.30
34989;DHT22;21192;40.182;44.516;2023-03-01T02:56:47;10.10;55.40
34989;DHT22;21192;40.182;44.516;2023-03-01T02:59:16;10.20;55.50
34989;DHT22;21192;40.182;44.516;2023-03-01T03:01:42;10.30;55.50
34989;DHT22;21192;40.182;44.516;2023-03-01T03:04:10;10.20;55.50
34989;DHT22;21192;40.182;44.516;2023-03-01T03:06:37;10.10;55.50
34989;DHT22;21192;40.182;44.516;2023-03-01T03:09:04;10.10;55.70
34989;DHT22;21192;40.182;44.516;2023-03-01T03:11:30;10.10;55.70
34989;DHT22;21192;40.182;44.516;2023-03-01T03:13:57;10.10;56.30
34989;DHT22;21192;40.182;44.516;2023-03-01T03:16:23;10.10;56.70
34989;DHT22;21192;40.182;44.516;2023-03-01T03:18:50;10.10;56.40
34989;DHT22;21192;40.182;44.516;2023-03-01T03:21:16;10.20;56.20
34989;DHT22;21192;40.182;44.516;2023-03-01T03:23:43;10.30;55.80
34989;DHT22;21192;40.182;44.516;2023-03-01T03:26:08;10.30;55.50
34989;DHT22;21192;40.182;44.516;2023-03-01T03:28:39;10.40;55.30
34989;DHT22;21192;40.182;44.516;2023-03-01T03:31:06;10.40;55.10
34989;DHT22;21192;40.182;44.516;2023-03-01T03:33:32;10.30;55.00
34989;DHT22;21192;40.182;44.516;2023-03-01T03:35:58;10.30;55.00
34989;DHT22;21192;40.182;44.516;2023-03-01T03:38:24;10.30;55.10
34989;DHT22;21192;40.182;44.516;2023-03-01T03:41:04;10.30;55.10
34989;DHT22;21192;40.182;44.516;2023-03-01T03:43:33;10.20;55.10
34989;DHT22;21192;40.182;44.516;2023-03-01T03:46:00;10.20;55.30
34989;DHT22;21192;40.182;44.516;2023-03-01T03:48:26;10.20;55.30
34989;DHT22;21192;40.182;44.516;2023-03-01T03:50:54;10.20;55.40
34989;DHT22;21192;40.182;44.516;2023-03-01T03:53:21;10.30;55.30
34989;DHT22;21192;40.182;44.516;2023-03-01T03:55:48;10.30;55.30
34989;DHT22;21192;40.182;44.516;2023-03-01T03:58:18;10.40;55.30
34989;DHT22;21192;40.182;44.516;2023-03-01T04:00:46;10.40;55.30
34989;DHT22;21192;40.182;44.516;2023-03-01T04:03:14;10.50;55.40
34989;DHT22;21192;40.182;44.516;2023-03-01T04:05:41;10.50;55.30
34989;DHT22;21192;40.182;44.516;2023-03-01T04:08:08;10.60;55.20
34989;DHT22;21192;40.182;44.516;2023-03-01T04:10:40;10.70;55.00
34989;DHT22;21192;40.182;44.516;2023-03-01T04:13:08;10.90;54.70
34989;DHT22;21192;40.182;44.516;2023-03-01T04:15:35;11.10;54.60
34989;DHT22;21192;40.182;44.516;2023-03-01T04:18:01;11.20;54.30
34989;DHT22;21192;40.182;44.516;2023-03-01T04:20:29;11.40;53.90
34989;DHT22;21192;40.182;44.516;2023-03-01T04:22:59;11.60;53.60
34989;DHT22;21192;40.182;44.516;2023-03-01T04:25:38;11.70;53.30
34989;DHT22;21192;40.182;44.516;2023-03-01T04:28:05;11.80;53.10
34989;DHT22;21192;40.182;44.516;2023-03-01T04:30:31;11.90;52.80
34989;DHT22;21192;40.182;44.516;2023-03-01T04:33:11;12.00;52.60
34989;DHT22;21192;40.182;44.516;2023-03-01T04:35:37;12.00;52.40
34989;DHT22;21192;40.182;44.516;2023-03-01T04:38:04;12.30;52.30
34989;DHT22;21192;40.182;44.516;2023-03-01T04:40:30;12.50;52.00
34989;DHT22;21192;40.182;44.516;2023-03-01T04:42:56;12.70;51.70
34989;DHT22;21192;40.182;44.516;2023-03-01T04:45:22;13.10;51.30
34989;DHT22;21192;40.182;44.516;2023-03-01T04:47:48;13.50;50.80
34989;DHT22;21192;40.182;44.516;2023-03-01T04:50:16;14.00;50.20
34989;DHT22;21192;40.182;44.516;2023-03-01T04:52:44;14.50;49.40
34989;DHT22;21192;40.182;44.516;2023-03-01T04:55:11;14.70;48.40
34989;DHT22;21192;40.182;44.516;2023-03-01T04:57:37;14.90;47.90
34989;DHT22;21192;40.182;44.516;2023-03-01T05:00:04;15.20;47.30
34989;DHT22;21192;40.182;44.516;2023-03-01T05:02:54;15.60;46.90
34989;DHT22;21192;40.182;44.516;2023-03-01T05:07:56;16.60;45.50
34989;DHT22;21192;40.182;44.516;2023-03-01T05:10:23;17.40;44.70
34989;DHT22;21192;40.182;44.516;2023-03-01T05:12:49;18.30;43.90
34989;DHT22;21192;40.182;44.516;2023-03-01T05:15:18;19.20;42.60
34989;DHT22;21192;40.182;44.516;2023-03-01T05:17:43;20.10;41.10
34989;DHT22;21192;40.182;44.516;2023-03-01T05:20:10;20.80;39.90
34989;DHT22;21192;40.182;44.516;2023-03-01T05:22:37;21.60;38.80
34989;DHT22;21192;40.182;44.516;2023-03-01T05:25:03;22.10;37.60
34989;DHT22;21192;40.182;44.516;2023-03-01T05:27:29;22.50;36.50
34989;DHT22;21192;40.182;44.516;2023-03-01T05:29:56;22.70;35.80
34989;DHT22;21192;40.182;44.516;2023-03-01T05:32:22;22.70;35.50
34989;DHT22;21192;40.182;44.516;2023-03-01T05:34:48;22.50;35.10
34989;DHT22;21192;40.182;44.516;2023-03-01T05:37:14;22.10;35.30
34989;DHT22;21192;40.182;44.516;2023-03-01T05:39:39;22.10;35.50
34989;DHT22;21192;40.182;44.516;2023-03-01T05:42:11;22.00;35.50
34989;DHT22;21192;40.182;44.516;2023-03-01T05:44:37;22.30;35.50
34989;DHT22;21192;40.182;44.516;2023-03-01T05:47:03;22.80;35.00
34989;DHT22;21192;40.182;44.516;2023-03-01T05:49:29;23.30;34.40
34989;DHT22;21192;40.182;44.516;2023-03-01T05:51:55;23.90;34.00
34989;DHT22;21192;40.182;44.516;2023-03-01T05:54:22;24.60;33.60
34989;DHT22;21192;40.182;44.516;2023-03-01T05:56:47;25.30;32.80
34989;DHT22;21192;40.182;44.516;2023-03-01T05:59:13;25.80;32.10
34989;DHT22;21192;40.182;44.516;2023-03-01T06:01:42;26.30;31.60
34989;DHT22;21192;40.182;44.516;2023-03-01T06:04:07;26.50;31.00
34989;DHT22;21192;40.182;44.516;2023-03-01T06:06:34;26.90;30.50
34989;DHT22;21192;40.182;44.516;2023-03-01T06:09:03;26.90;30.00
34989;DHT22;21192;40.182;44.516;2023-03-01T06:11:29;26.40;29.80
34989;DHT22;21192;40.182;44.516;2023-03-01T06:13:55;25.30;30.00
34989;DHT22;21192;40.182;44.516;2023-03-01T06:16:20;24.40;30.80
34989;DHT22;21192;40.182;44.516;2023-03-01T06:18:46;24.30;31.50
34989;DHT22;21192;40.182;44.516;2023-03-01T06:21:12;24.10;31.50
34989;DHT22;21192;40.182;44.516;2023-03-01T06:23:38;23.00;32.20
34989;DHT22;21192;40.182;44.516;2023-03-01T06:26:08;22.80;34.10
34989;DHT22;21192;40.182;44.516;2023-03-01T06:28:34;22.90;34.30
34989;DHT22;21192;40.182;44.516;2023-03-01T06:31:00;23.10;33.70
34989;DHT22;21192;40.182;44.516;2023-03-01T06:33:26;23.40;33.20
34989;DHT22;21192;40.182;44.516;2023-03-01T06:35:55;23.30;32.60
34989;DHT22;21192;40.182;44.516;2023-03-01T06:38:22;23.00;32.50
34989;DHT22;21192;40.182;44.516;2023-03-01T06:40:54;22.70;32.70
34989;DHT22;21192;40.182;44.516;2023-03-01T06:43:20;22.50;32.90
34989;DHT22;21192;40.182;44.516;2023-03-01T06:45:46;22.60;32.90
34989;DHT22;21192;40.182;44.516;2023-03-01T06:48:14;22.50;33.00
34989;DHT22;21192;40.182;44.516;2023-03-01T06:50:40;22.50;33.10
34989;DHT22;21192;40.182;44.516;2023-03-01T06:53:06;22.20;33.10
34989;DHT22;21192;40.182;44.516;2023-03-01T06:55:32;21.40;33.60
34989;DHT22;21192;40.182;44.516;2023-03-01T06:57:59;20.70;34.60
34989;DHT22;21192;40.182;44.516;2023-03-01T07:00:26;20.30;35.70
34989;DHT22;21192;40.182;44.516;2023-03-01T07:02:52;19.90;36.20
34989;DHT22;21192;40.182;44.516;2023-03-01T07:05:19;19.80;36.60
34989;DHT22;21192;40.182;44.516;2023-03-01T07:07:45;19.60;36.90
34989;DHT22;21192;40.182;44.516;2023-03-01T07:10:11;19.20;37.30
34989;DHT22;21192;40.182;44.516;2023-03-01T07:12:37;19.30;37.80
34989;DHT22;21192;40.182;44.516;2023-03-01T07:15:04;19.60;37.60
34989;DHT22;21192;40.182;44.516;2023-03-01T07:17:30;19.60;37.50
34989;DHT22;21192;40.182;44.516;2023-03-01T07:19:56;19.40;37.90
34989;DHT22;21192;40.182;44.516;2023-03-01T07:22:22;19.40;38.00
34989;DHT22;21192;40.182;44.516;2023-03-01T07:24:48;19.50;37.90
34989;DHT22;21192;40.182;44.516;2023-03-01T07:27:14;19.60;37.90
34989;DHT22;21192;40.182;44.516;2023-03-01T07:29:39;19.50;37.70
34989;DHT22;21192;40.182;44.516;2023-03-01T07:32:06;19.30;37.90
34989;DHT22;21192;40.182;44.516;2023-03-01T07:34:32;19.00;39.00
34989;DHT22;21192;40.182;44.516;2023-03-01T07:36:58;18.80;39.10
34989;DHT22;21192;40.182;44.516;2023-03-01T07:39:24;18.80;38.60
34989;DHT22;21192;40.182;44.516;2023-03-01T07:41:50;18.90;38.70
34989;DHT22;21192;40.182;44.516;2023-03-01T07:44:16;18.90;38.80
34989;DHT22;21192;40.182;44.516;2023-03-01T07:46:43;18.90;38.80
34989;DHT22;21192;40.182;44.516;2023-03-01T07:49:10;18.60;38.90
34989;DHT22;21192;40.182;44.516;2023-03-01T07:51:36;18.60;39.10
34989;DHT22;21192;40.182;44.516;2023-03-01T07:54:02;18.70;39.10
34989;DHT22;21192;40.182;44.516;2023-03-01T07:56:28;18.30;39.30
34989;DHT22;21192;40.182;44.516;2023-03-01T07:58:54;18.20;39.70
34989;DHT22;21192;40.182;44.516;2023-03-01T08:01:21;18.30;39.80
34989;DHT22;21192;40.182;44.516;2023-03-01T08:03:47;18.30;39.70
34989;DHT22;21192;40.182;44.516;2023-03-01T08:06:15;18.20;39.70
34989;DHT22;21192;40.182;44.516;2023-03-01T08:08:41;18.10;39.80
34989;DHT22;21192;40.182;44.516;2023-03-01T08:11:10;18.10;40.00
34989;DHT22;21192;40.182;44.516;2023-03-01T08:13:36;18.00;40.00
34989;DHT22;21192;40.182;44.516;2023-03-01T08:16:03;18.20;40.00
34989;DHT22;21192;40.182;44.516;2023-03-01T08:18:30;18.20;40.00
34989;DHT22;21192;40.182;44.516;2023-03-01T08:21:05;18.30;39.90
34989;DHT22;21192;40.182;44.516;2023-03-01T08:23:31;18.30;39.70
34989;DHT22;21192;40.182;44.516;2023-03-01T08:26:23;18.20;39.60
34989;DHT22;21192;40.182;44.516;2023-03-01T08:28:49;18.30;39.60
34989;DHT22;21192;40.182;44.516;2023-03-01T08:31:23;18.40;39.40
34989;DHT22;21192;40.182;44.516;2023-03-01T08:33:51;18.30;39.40
34989;DHT22;21192;40.182;44.516;2023-03-01T08:36:21;18.30;39.20
34989;DHT22;21192;40.182;44.516;2023-03-01T08:38:48;18.40;39.20
34989;DHT22;21192;40.182;44.516;2023-03-01T08:41:14;18.40;39.00
34989;DHT22;21192;40.182;44.516;2023-03-01T08:43:40;18.40;39.00
34989;DHT22;21192;40.182;44.516;2023-03-01T08:46:06;18.40;39.00
34989;DHT22;21192;40.182;44.516;2023-03-01T08:48:32;18.20;39.00
34989;DHT22;21192;40.182;44.516;2023-03-01T08:51:10;18.00;39.00
34989;DHT22;21192;40.182;44.516;2023-03-01T08:53:36;18.00;39.20
34989;DHT22;21192;40.182;44.516;2023-03-01T08:56:02;18.10;39.20
34989;DHT22;21192;40.182;44.516;2023-03-01T08:58:29;18.00;39.30
34989;DHT22;21192;40.182;44.516;2023-03-01T09:00:55;17.80;39.20
34989;DHT22;21192;40.182;44.516;2023-03-01T09:03:22;17.80;39.30
34989;DHT22;21192;40.182;44.516;2023-03-01T09:05:50;17.90;39.30
34989;DHT22;21192;40.182;44.516;2023-03-01T09:08:19;18.10;39.50
34989;DHT22;21192;40.182;44.516;2023-03-01T09:10:46;18.20;39.20
34989;DHT22;21192;40.182;44.516;2023-03-01T09:13:12;18.30;39.00
34989;DHT22;21192;40.182;44.516;2023-03-01T09:15:38;18.30;38.70
34989;DHT22;21192;40.182;44.516;2023-03-01T09:18:04;18.20;38.60
34989;DHT22;21192;40.182;44.516;2023-03-01T09:20:31;18.10;38.60
34989;DHT22;21192;40.182;44.516;2023-03-01T09:22:57;18.00;38.70
34989;DHT22;21192;40.182;44.516;2023-03-01T09:25:24;17.80;39.60
34989;DHT22;21192;40.182;44.516;2023-03-01T09:27:53;17.80;39.20
34989;DHT22;21192;40.182;44.516;2023-03-01T09:30:20;17.70;39.30
34989;DHT22;21192;40.182;44.516;2023-03-01T09:32:47;17.70;39.30
34989;DHT22;21192;40.182;44.516;2023-03-01T09:35:13;17.70;39.30
34989;DHT22;21192;40.182;44.516;2023-03-01T09:37:39;17.80;39.40
34989;DHT22;21192;40.182;44.516;2023-03-01T09:40:17;17.90;39.40
34989;DHT22;21192;40.182;44.516;2023-03-01T09:45:30;17.70;39.20
34989;DHT22;21192;40.182;44.516;2023-03-01T09:48:00;17.70;39.50
34989;DHT22;21192;40.182;44.516;2023-03-01T09:50:33;17.60;39.50
34989;DHT22;21192;40.182;44.516;2023-03-01T09:53:06;17.70;39.50
34989;DHT22;21192;40.182;44.516;2023-03-01T09:58:37;17.80;39.40
34989;DHT22;21192;40.182;44.516;2023-03-01T10:01:41;17.90;39.50
34989;DHT22;21192;40.182;44.516;2023-03-01T10:04:28;18.00;39.50
34989;DHT22;21192;40.182;44.516;2023-03-01T10:09:53;17.80;39.40
34989;DHT22;21192;40.182;44.516;2023-03-01T10:12:24;17.80;39.30
34989;DHT22;21192;40.182;44.516;2023-03-01T10:14:55;17.60;39.30
34989;DHT22;21192;40.182;44.516;2023-03-01T10:17:34;17.40;39.60
34989;DHT22;21192;40.182;44.516;2023-03-01T10:21:12;17.30;39.70
34989;DHT22;21192;40.182;44.516;2023-03-01T10:23:32;17.40;39.80
34989;DHT22;21192;40.182;44.516;2023-03-01T10:26:12;17.40;39.80
34989;DHT22;21192;40.182;44.516;2023-03-01T10:31:44;17.70;39.60
34989;DHT22;21192;40.182;44.516;2023-03-01T10:34:13;17.70;39.40
34989;DHT22;21192;40.182;44.516;2023-03-01T10:36:40;17.60;39.50
34989;DHT22;21192;40.182;44.516;2023-03-01T10:39:27;17.40;39.50
34989;DHT22;21192;40.182;44.516;2023-03-01T10:44:44;17.30;39.70
34989;DHT22;21192;40.182;44.516;2023-03-01T10:47:26;17.40;39.50
34989;DHT22;21192;40.182;44.516;2023-03-01T10:49:58;17.40;39.50
34989;DHT22;21192;40.182;44.516;2023-03-01T10:52:28;17.50;39.50
34989;DHT22;21192;40.182;44.516;2023-03-01T10:55:00;17.40;39.50
34989;DHT22;21192;40.182;44.516;2023-03-01T10:57:36;17.40;39.50
34989;DHT22;21192;40.182;44.516;2023-03-01T11:00:16;17.50;39.30
34989;DHT22;21192;40.182;44.516;2023-03-01T11:02:47;17.50;39.00
34989;DHT22;21192;40.182;44.516;2023-03-01T11:08:06;17.60;39.10
34989;DHT22;21192;40.182;44.516;2023-03-01T11:10:36;17.80;39.00
34989;DHT22;21192;40.182;44.516;2023-03-01T11:13:17;17.90;38.90
34989;DHT22;21192;40.182;44.516;2023-03-01T11:15:59;17.80;38.80
34989;DHT22;21192;40.182;44.516;2023-03-01T11:18:26;17.80;38.70
34989;DHT22;21192;40.182;44.516;2023-03-01T11:20:53;17.90;38.70
34989;DHT22;21192;40.182;44.516;2023-03-01T11:23:22;17.80;38.70
34989;DHT22;21192;40.182;44.516;2023-03-01T11:25:54;17.90;38.70
34989;DHT22;21192;40.182;44.516;2023-03-01T11:28:21;17.90;38.70
34989;DHT22;21192;40.182;44.516;2023-03-01T11:38:42;17.90;38.60
34989;DHT22;21192;40.182;44.516;2023-03-01T11:41:25;17.90;38.60
34989;DHT22;21192;40.182;44.516;2023-03-01T11:44:03;17.80;38.90
34989;DHT22;21192;40.182;44.516;2023-03-01T11:54:33;17.60;38.70
34989;DHT22;21192;40.182;44.516;2023-03-01T11:57:15;17.80;38.70
34989;DHT22;21192;40.182;44.516;2023-03-01T12:00:04;17.70;38.60
34989;DHT22;21192;40.182;44.516;2023-03-01T12:08:13;17.60;38.90
34989;DHT22;21192;40.182;44.516;2023-03-01T12:13:33;17.50;38.80
34989;DHT22;21192;40.182;44.516;2023-03-01T12:18:54;17.80;38.50
34989;DHT22;21192;40.182;44.516;2023-03-01T12:21:45;17.80;38.40
34989;DHT22;21192;40.182;44.516;2023-03-01T12:24:41;17.90;38.40
34989;DHT22;21192;40.182;44.516;2023-03-01T12:27:50;18.00;38.30
34989;DHT22;21192;40.182;44.516;2023-03-01T12:36:41;18.10;37.80
34989;DHT22;21192;40.182;44.516;2023-03-01T12:39:21;17.90;37.90
34989;DHT22;21192;40.182;44.516;2023-03-01T12:41:59;17.80;38.00
34989;DHT22;21192;40.182;44.516;2023-03-01T12:47:39;17.60;38.50
34989;DHT22;21192;40.182;44.516;2023-03-01T12:50:26;17.50;38.70
34989;DHT22;21192;40.182;44.516;2023-03-01T12:52:57;17.60;38.50
34989;DHT22;21192;40.182;44.516;2023-03-01T12:55:39;17.60;38.60
34989;DHT22;21192;40.182;44.516;2023-03-01T13:01:19;17.60;38.60
34989;DHT22;21192;40.182;44.516;2023-03-01T13:04:24;17.70;38.50
34989;DHT22;21192;40.182;44.516;2023-03-01T13:12:43;17.60;38.60
34989;DHT22;21192;40.182;44.516;2023-03-01T13:15:30;17.70;38.70
34989;DHT22;21192;40.182;44.516;2023-03-01T13:18:43;17.70;38.70
34989;DHT22;21192;40.182;44.516;2023-03-01T13:20:58;17.70;38.70
34989;DHT22;21192;40.182;44.516;2023-03-01T13:23:31;17.70;38.70
34989;DHT22;21192;40.182;44.516;2023-03-01T13:26:17;17.70;38.50
34989;DHT22;21192;40.182;44.516;2023-03-01T13:28:51;17.70;38.50
34989;DHT22;21192;40.182;44.516;2023-03-01T13:33:51;17.50;38.40
34989;DHT22;21192;40.182;44.516;2023-03-01T13:46:55;17.30;38.50
34989;DHT22;21192;40.182;44.516;2023-03-01T13:49:28;17.30;38.50
34989;DHT22;21192;40.182;44.516;2023-03-01T13:51:55;17.40;38.60
34989;DHT22;21192;40.182;44.516;2023-03-01T13:54:30;17.40;38.70
34989;DHT22;21192;40.182;44.516;2023-03-01T13:56:58;17.40;38.70
34989;DHT22;21192;40.182;44.516;2023-03-01T13:59:24;17.40;38.80
34989;DHT22;21192;40.182;44.516;2023-03-01T14:02:00;17.20;38.70
34989;DHT22;21192;40.182;44.516;2023-03-01T14:04:29;17.00;38.80
34989;DHT22;21192;40.182;44.516;2023-03-01T14:07:18;16.90;38.80
34989;DHT22;21192;40.182;44.516;2023-03-01T14:09:47;16.80;39.00
34989;DHT22;21192;40.182;44.516;2023-03-01T14:14:45;16.70;39.20
34989;DHT22;21192;40.182;44.516;2023-03-01T14:20:30;16.50;39.40
34989;DHT22;21192;40.182;44.516;2023-03-01T14:23:00;16.40;39.50
34989;DHT22;21192;40.182;44.516;2023-03-01T14:25:30;16.40;39.50
34989;DHT22;21192;40.182;44.516;2023-03-01T14:30:38;16.30;39.80
34989;DHT22;21192;40.182;44.516;2023-03-01T14:33:25;16.40;39.80
34989;DHT22;21192;40.182;44.516;2023-03-01T14:38:28;16.30;39.80
34989;DHT22;21192;40.182;44.516;2023-03-01T14:40:58;16.30;39.90
34989;DHT22;21192;40.182;44.516;2023-03-01T14:43:24;16.30;40.00
34989;DHT22;21192;40.182;44.516;2023-03-01T14:45:53;16.10;40.00
34989;DHT22;21192;40.182;44.516;2023-03-01T14:48:20;16.10;40.20
34989;DHT22;21192;40.182;44.516;2023-03-01T14:50:46;16.20;40.20
34989;DHT22;21192;40.182;44.516;2023-03-01T14:53:20;16.20;40.30
34989;DHT22;21192;40.182;44.516;2023-03-01T14:56:00;16.20;40.30
34989;DHT22;21192;40.182;44.516;2023-03-01T14:58:32;16.10;40.50
34989;DHT22;21192;40.182;44.516;2023-03-01T15:01:00;16.00;40.60
34989;DHT22;21192;40.182;44.516;2023-03-01T15:03:47;15.90;40.80
34989;DHT22;21192;40.182;44.516;2023-03-01T15:06:20;15.80;40.90
34989;DHT22;21192;40.182;44.516;2023-03-01T15:08:53;15.80;41.10
34989;DHT22;21192;40.182;44.516;2023-03-01T15:11:30;15.80;41.10
34989;DHT22;21192;40.182;44.516;2023-03-01T15:13:57;15.80;41.10
34989;DHT22;21192;40.182;44.516;2023-03-01T15:16:30;15.80;41.10
34989;DHT22;21192;40.182;44.516;2023-03-01T15:19:03;15.90;41.40
34989;DHT22;21192;40.182;44.516;2023-03-01T15:21:33;15.80;41.50
34989;DHT22;21192;40.182;44.516;2023-03-01T15:26:43;15.70;42.00
34989;DHT22;21192;40.182;44.516;2023-03-01T15:29:22;15.60;42.10
34989;DHT22;21192;40.182;44.516;2023-03-01T15:32:25;15.60;42.10
34989;DHT22;21192;40.182;44.516;2023-03-01T15:34:51;15.50;41.70
34989;DHT22;21192;40.182;44.516;2023-03-01T15:37:45;15.50;41.80
34989;DHT22;21192;40.182;44.516;2023-03-01T15:40:28;15.50;41.80
34989;DHT22;21192;40.182;44.516;2023-03-01T15:43:00;15.50;41.80
34989;DHT22;21192;40.182;44.516;2023-03-01T15:45:28;15.50;41.80
34989;DHT22;21192;40.182;44.516;2023-03-01T15:48:05;15.40;42.00
34989;DHT22;21192;40.182;44.516;2023-03-01T15:50:39;15.30;42.20
34989;DHT22;21192;40.182;44.516;2023-03-01T15:53:10;15.30;42.40
34989;DHT22;21192;40.182;44.516;2023-03-01T15:55:37;15.30;42.50
34989;DHT22;21192;40.182;44.516;2023-03-01T15:58:11;15.30;42.60
34989;DHT22;21192;40.182;44.516;2023-03-01T16:00:38;15.30;42.60
34989;DHT22;21192;40.182;44.516;2023-03-01T16:03:06;15.30;42.50
34989;DHT22;21192;40.182;44.516;2023-03-01T16:05:35;15.30;42.70
34989;DHT22;21192;40.182;44.516;2023-03-01T16:08:02;15.20;42.80
34989;DHT22;21192;40.182;44.516;2023-03-01T16:10:28;15.30;43.10
34989;DHT22;21192;40.182;44.516;2023-03-01T16:12:54;15.30;43.10
34989;DHT22;21192;40.182;44.516;2023-03-01T16:15:26;15.30;43.30
34989;DHT22;21192;40.182;44.516;2023-03-01T16:17:53;15.20;43.30
34989;DHT22;21192;40.182;44.516;2023-03-01T16:20:18;15.20;43.50
34989;DHT22;21192;40.182;44.516;2023-03-01T16:22:45;15.20;43.70
34989;DHT22;21192;40.182;44.516;2023-03-01T16:25:14;15.10;43.90
34989;DHT22;21192;40.182;44.516;2023-03-01T16:27:44;15.10;44.00
34989;DHT22;21192;40.182;44.516;2023-03-01T16:30:11;15.00;44.20
34989;DHT22;21192;40.182;44.516;2023-03-01T16:32:41;15.00;44.30
34989;DHT22;21192;40.182;44.516;2023-03-01T16:35:08;14.90;44.40
34989;DHT22;21192;40.182;44.516;2023-03-01T16:37:35;14.90;44.40
34989;DHT22;21192;40.182;44.516;2023-03-01T16:40:03;14.90;44.40
34989;DHT22;21192;40.182;44.516;2023-03-01T16:42:34;14.80;44.60
34989;DHT22;21192;40.182;44.516;2023-03-01T16:45:00;14.80;44.80
34989;DHT22;21192;40.182;44.516;2023-03-01T16:47:27;14.80;44.90
34989;DHT22;21192;40.182;44.516;2023-03-01T16:49:54;14.80;45.00
34989;DHT22;21192;40.182;44.516;2023-03-01T16:52:20;14.80;45.20
34989;DHT22;21192;40.182;44.516;2023-03-01T16:54:46;14.80;45.30
34989;DHT22;21192;40.182;44.516;2023-03-01T16:57:12;14.70;45.50
34989;DHT22;21192;40.182;44.516;2023-03-01T16:59:38;14.70;45.60
34989;DHT22;21192;40.182;44.516;2023-03-01T17:02:04;14.80;45.80
34989;DHT22;21192;40.182;44.516;2023-03-01T17:04:35;14.70;45.90
34989;DHT22;21192;40.182;44.516;2023-03-01T17:07:00;14.70;46.00
34989;DHT22;21192;40.182;44.516;2023-03-01T17:09:26;14.70;46.10
34989;DHT22;21192;40.182;44.516;2023-03-01T17:11:52;14.60;46.20
34989;DHT22;21192;40.182;44.516;2023-03-01T17:14:19;14.60;46.30
34989;DHT22;21192;40.182;44.516;2023-03-01T17:16:45;14.60;46.50
34989;DHT22;21192;40.182;44.516;2023-03-01T17:19:11;14.60;47.20
34989;DHT22;21192;40.182;44.516;2023-03-01T17:21:43;14.60;47.70
34989;DHT22;21192;40.182;44.516;2023-03-01T17:24:10;14.60;47.30